Time;durP1;ratioP1;P1;durP2;ratioP2;P2;SDS_P1;SDS_P2;PMS_P1;PMS_P2;Temp;Humidity;BMP_temperature;BMP_pressure;BME280_temperature;BME280_humidity;BME280_pressure;Samples;Min_cycle;Max_cycle;Signal;HPM_P1;HPM_P2
2023/08/11 00:00:22;;;;;;;8.55;2.53;;;;;;;20.68;100.00;101050.47;5012177;28;20029;-54
2023/08/11 00:02:51;;;;;;;1.42;1.25;;;;;;;20.64;100.00;101041.22;5023418;28;20061;-52
2023/08/11 00:05:17;;;;;;;7.85;2.38;;;;;;;20.59;100.00;101049.22;5016457;28;20467;-56
2023/08/11 00:07:50;;;;;;;1.48;1.30;;;;;;;20.63;100.00;101046.88;5018571;28;20045;-53
2023/08/11 00:10:16;;;;;;;6.68;2.10;;;;;;;20.55;100.00;101042.72;5014677;28;20486;-57
2023/08/11 00:12:41;;;;;;;1.40;1.30;;;;;;;20.53;100.00;101039.41;5017652;28;20681;-55
2023/08/11 00:15:07;;;;;;;4.00;1.60;;;;;;;20.46;100.00;101038.75;5016833;28;20029;-50
2023/08/11 00:17:33;;;;;;;3.25;2.00;;;;;;;20.38;100.00;101055.28;5025302;28;20037;-52
2023/08/11 00:19:58;;;;;;;4.70;1.88;;;;;;;20.51;100.00;101033.44;5009540;28;20041;-57
2023/08/11 00:22:24;;;;;;;3.50;1.83;;;;;;;20.50;100.00;101037.19;5005438;28;20037;-55
2023/08/11 00:24:49;;;;;;;4.22;1.23;;;;;;;20.56;100.00;101036.25;5018393;28;20033;-58
2023/08/11 00:27:14;;;;;;;7.18;1.75;;;;;;;20.64;100.00;101041.22;5013886;28;20379;-54
2023/08/11 00:29:40;;;;;;;5.60;2.25;;;;;;;20.74;100.00;101043.28;5019699;28;20044;-52
2023/08/11 00:32:05;;;;;;;2.45;2.05;;;;;;;20.80;100.00;101041.47;5012969;28;20130;-56
2023/08/11 00:34:30;;;;;;;1.35;1.20;;;;;;;20.87;100.00;101025.97;5022869;28;20079;-53
2023/08/11 00:36:56;;;;;;;3.63;1.63;;;;;;;20.83;100.00;101019.41;5023479;28;20030;-55
2023/08/11 00:39:21;;;;;;;5.03;1.67;;;;;;;20.83;100.00;101016.72;5016756;28;20041;-56
2023/08/11 00:41:47;;;;;;;5.10;1.45;;;;;;;20.72;100.00;101023.84;5021041;28;20029;-54
2023/08/11 00:44:12;;;;;;;6.13;1.95;;;;;;;20.71;100.00;101034.88;5023330;28;20470;-53
2023/08/11 00:46:39;;;;;;;8.00;2.10;;;;;;;20.67;100.00;101021.88;5027673;28;20044;-53
2023/08/11 00:49:05;;;;;;;3.67;1.45;;;;;;;20.76;100.00;101019.59;5024509;28;20088;-50
2023/08/11 00:51:30;;;;;;;3.70;2.30;;;;;;;20.78;100.00;101019.34;5024000;28;20041;-57
2023/08/11 00:53:57;;;;;;;2.97;1.98;;;;;;;20.74;100.00;101007.44;5023457;28;20051;-56
2023/08/11 00:56:23;;;;;;;5.03;1.38;;;;;;;20.66;100.00;101006.78;5026606;28;20053;-54
2023/08/11 00:58:52;;;;;;;7.07;1.58;;;;;;;20.58;100.00;101012.59;5024072;28;20071;-53
2023/08/11 01:01:18;;;;;;;5.63;1.55;;;;;;;20.64;100.00;101010.78;5020238;28;20104;-55
2023/08/11 01:03:47;;;;;;;3.42;2.13;;;;;;;20.65;100.00;101002.47;5022229;28;20406;-57
2023/08/11 01:06:58;;;;;;;5.13;2.70;;;;;;;20.75;100.00;101007.19;5015876;28;20406;-54
2023/08/11 01:09:35;;;;;;;4.32;1.38;;;;;;;20.69;100.00;101011.66;5034793;28;20068;-55
2023/08/11 01:12:16;;;;;;;4.72;1.88;;;;;;;20.61;100.00;101019.38;5017730;28;20037;-56
2023/08/11 01:15:12;;;;;;;7.28;1.95;;;;;;;20.55;100.00;101013.06;5021617;28;20061;-51
2023/08/11 01:17:40;;;;;;;3.40;1.02;;;;;;;20.52;100.00;101008.13;5017977;28;20040;-55
2023/08/11 01:20:10;;;;;;;5.03;1.67;;;;;;;20.50;100.00;100999.50;5018652;28;20045;-52
2023/08/11 01:22:38;;;;;;;3.38;2.05;;;;;;;20.40;100.00;101002.81;5023041;28;20038;-53
2023/08/11 01:25:07;;;;;;;9.20;1.60;;;;;;;20.34;100.00;101001.13;5017505;28;20099;-53
2023/08/11 01:27:36;;;;;;;2.42;1.60;;;;;;;20.23;100.00;100999.28;5017812;28;20494;-49
2023/08/11 01:30:04;;;;;;;3.60;1.60;;;;;;;20.14;100.00;101006.13;5021983;28;20483;-54
2023/08/11 01:32:29;;;;;;;6.28;2.60;;;;;;;20.11;100.00;100993.97;5015674;28;20479;-51
2023/08/11 01:34:55;;;;;;;8.68;2.90;;;;;;;20.27;100.00;100990.50;5016388;28;20087;-53
2023/08/11 01:37:20;;;;;;;10.00;1.85;;;;;;;20.38;100.00;100993.34;5017721;28;20037;-54
2023/08/11 01:39:45;;;;;;;3.25;1.33;;;;;;;20.45;100.00;100988.63;5024442;28;20479;-53
2023/08/11 01:42:11;;;;;;;2.75;0.77;;;;;;;20.54;100.00;100989.03;5020346;28;20450;-55
2023/08/11 01:44:37;;;;;;;5.82;2.28;;;;;;;20.60;100.00;100993.47;5017383;28;20037;-54
2023/08/11 01:47:04;;;;;;;5.68;1.50;;;;;;;20.59;100.00;100991.84;5015763;28;20039;-53
2023/08/11 01:49:29;;;;;;;3.75;1.05;;;;;;;20.61;100.00;100989.72;5019370;28;20357;-54
2023/08/11 01:51:55;;;;;;;6.35;3.10;;;;;;;20.73;100.00;100987.78;5021439;28;20030;-55
2023/08/11 01:54:21;;;;;;;9.45;2.65;;;;;;;20.72;100.00;100988.00;5021612;28;20036;-56
2023/08/11 01:56:47;;;;;;;14.82;2.70;;;;;;;20.68;100.00;100977.72;5017418;28;20486;-55
2023/08/11 01:59:17;;;;;;;2.55;1.50;;;;;;;20.68;100.00;100980.41;5023527;28;20505;-55
2023/08/11 02:01:43;;;;;;;3.75;1.60;;;;;;;20.74;100.00;100978.59;5019631;28;20064;-55
2023/08/11 02:04:09;;;;;;;7.72;2.22;;;;;;;20.80;100.00;100979.50;5022483;28;20379;-53
2023/08/11 02:06:36;;;;;;;8.77;2.42;;;;;;;20.84;100.00;100972.56;5019809;28;20382;-52
2023/08/11 02:09:04;;;;;;;2.75;1.77;;;;;;;20.73;100.00;100971.59;5020976;28;20543;-54
2023/08/11 02:11:30;;;;;;;3.78;1.10;;;;;;;20.72;100.00;100964.56;5026008;28;20037;-54
2023/08/11 02:13:55;;;;;;;5.80;1.50;;;;;;;20.67;100.00;100962.59;5016812;28;20485;-54
2023/08/11 02:16:20;;;;;;;5.90;2.05;;;;;;;20.71;100.00;100957.56;5014190;28;20124;-53
2023/08/11 02:18:45;;;;;;;3.20;1.08;;;;;;;20.82;100.00;100951.25;5019330;28;20045;-54
2023/08/11 02:21:12;;;;;;;6.03;1.98;;;;;;;20.82;100.00;100939.66;5015914;28;20041;-54
2023/08/11 02:23:37;;;;;;;7.93;1.80;;;;;;;20.82;100.00;100936.97;5017143;28;20068;-52
2023/08/11 02:26:03;;;;;;;4.53;1.48;;;;;;;20.78;100.00;100936.66;5020070;28;20033;-54
2023/08/11 02:28:28;;;;;;;11.60;3.03;;;;;;;20.87;100.00;100945.91;5016742;28;20053;-53
2023/08/11 02:30:54;;;;;;;6.72;1.95;;;;;;;20.86;100.00;100944.31;5019712;28;20040;-55
2023/08/11 02:33:20;;;;;;;9.10;2.30;;;;;;;20.89;100.00;100948.38;5021869;28;20303;-56
2023/08/11 02:35:46;;;;;;;8.45;1.80;;;;;;;20.93;100.00;100941.41;5016586;28;20402;-52
2023/08/11 02:38:13;;;;;;;13.65;3.50;;;;;;;20.96;100.00;100945.50;5016398;28;20034;-54
2023/08/11 02:40:38;;;;;;;3.90;1.92;;;;;;;20.91;100.00;100941.69;5022297;28;20069;-51
2023/08/11 02:43:04;;;;;;;5.78;1.95;;;;;;;20.91;100.00;100944.38;5021969;28;20505;-53
2023/08/11 02:45:30;;;;;;;4.45;2.20;;;;;;;21.04;100.00;100945.91;5018645;28;20084;-54
2023/08/11 02:47:56;;;;;;;7.70;1.90;;;;;;;21.02;100.00;100948.03;5015734;28;20029;-53
2023/08/11 02:50:21;;;;;;;4.25;2.22;;;;;;;21.04;100.00;100945.91;5015246;28;20441;-54
2023/08/11 02:52:46;;;;;;;5.60;1.80;;;;;;;21.03;100.00;100941.56;5017218;28;20033;-52
2023/08/11 02:55:12;;;;;;;6.25;2.25;;;;;;;20.89;100.00;100948.38;5028412;28;20026;-55
2023/08/11 02:57:37;;;;;;;5.70;1.95;;;;;;;21.01;100.00;100943.69;5006154;28;20493;-52
2023/08/11 03:00:09;;;;;;;8.18;2.45;;;;;;;21.06;100.00;100938.34;5012366;28;20600;-56
2023/08/11 03:02:35;;;;;;;7.43;1.77;;;;;;;21.09;100.00;100939.72;5021499;28;20059;-56
2023/08/11 03:05:00;;;;;;;14.38;3.30;;;;;;;20.98;100.00;100935.28;5027918;28;20108;-51
2023/08/11 03:07:26;;;;;;;6.63;3.42;;;;;;;20.97;100.00;100939.88;5020473;28;20111;-53
2023/08/11 03:09:51;;;;;;;3.25;1.77;;;;;;;21.01;100.00;100927.50;5020467;28;20041;-50
2023/08/11 03:12:17;;;;;;;10.00;2.22;;;;;;;21.02;100.00;100920.25;5018355;28;20465;-56
2023/08/11 03:14:42;;;;;;;7.70;2.13;;;;;;;21.00;100.00;100920.50;5017345;28;20045;-54
2023/08/11 03:17:10;;;;;;;5.28;2.20;;;;;;;21.00;100.00;100925.88;5013051;28;20088;-55
2023/08/11 03:19:35;;;;;;;4.30;2.08;;;;;;;21.06;100.00;100926.75;5020425;28;20044;-54
2023/08/11 03:22:00;;;;;;;9.50;2.25;;;;;;;21.01;100.00;100930.19;5019827;28;20033;-52
2023/08/11 03:24:26;;;;;;;6.15;1.95;;;;;;;21.00;100.00;100927.78;5014254;28;20029;-56
2023/08/11 03:26:51;;;;;;;6.50;2.80;;;;;;;21.01;100.00;100924.81;5021288;28;20060;-53
2023/08/11 03:29:17;;;;;;;7.95;2.15;;;;;;;21.06;100.00;100922.19;5012153;28;20039;-53
2023/08/11 03:31:42;;;;;;;5.20;2.45;;;;;;;21.08;100.00;100921.94;5019323;28;20402;-57
2023/08/11 03:34:08;;;;;;;6.63;3.75;;;;;;;21.11;100.00;100918.75;5025147;28;20128;-55
2023/08/11 03:36:33;;;;;;;5.57;2.55;;;;;;;21.11;100.00;100918.75;5020915;28;20414;-54
2023/08/11 03:38:59;;;;;;;6.65;1.75;;;;;;;21.15;100.00;100913.69;5022112;28;20426;-55
2023/08/11 03:41:24;;;;;;;2.63;1.17;;;;;;;21.19;100.00;100920.19;5017316;28;20442;-56
2023/08/11 03:43:49;;;;;;;5.13;1.88;;;;;;;21.11;100.00;100919.53;5014425;28;20241;-57
2023/08/11 03:46:15;;;;;;;6.47;2.20;;;;;;;21.19;100.00;100917.47;5019074;28;20064;-54
2023/08/11 03:48:41;;;;;;;4.60;1.48;;;;;;;21.20;100.00;100919.94;5020264;28;20487;-53
2023/08/11 03:51:06;;;;;;;7.68;2.75;;;;;;;21.18;100.00;100918.56;5015884;28;20038;-54
2023/08/11 03:53:33;;;;;;;4.28;1.90;;;;;;;21.19;100.00;100925.56;5013653;28;20414;-55
2023/08/11 03:55:59;;;;;;;4.15;1.42;;;;;;;21.12;100.00;100926.59;5022891;28;20037;-53
2023/08/11 03:58:24;;;;;;;6.75;2.08;;;;;;;21.13;100.00;100913.91;5016528;28;20466;-56
2023/08/11 04:00:49;;;;;;;5.15;2.40;;;;;;;21.20;100.00;100922.63;5018284;28;20065;-55
2023/08/11 04:03:15;;;;;;;10.80;1.67;;;;;;;21.28;100.00;100924.88;5016040;28;20470;-55
2023/08/11 04:05:44;;;;;;;5.30;1.52;;;;;;;21.21;100.00;100918.06;5020670;28;20034;-55
2023/08/11 04:08:09;;;;;;;5.35;1.80;;;;;;;21.27;100.00;100920.56;5014946;28;20034;-55
2023/08/11 04:10:35;;;;;;;5.43;1.27;;;;;;;21.32;100.00;100923.34;5022059;28;20052;-55
2023/08/11 04:13:00;;;;;;;4.75;1.08;;;;;;;21.31;100.00;100919.00;5019260;28;20128;-57
2023/08/11 04:15:26;;;;;;;4.80;1.02;;;;;;;21.38;100.00;100926.94;5020773;28;20469;-56
2023/08/11 04:17:52;;;;;;;3.28;0.77;;;;;;;21.40;100.00;100922.09;5018978;28;20096;-55
2023/08/11 04:20:17;;;;;;;1.95;0.85;;;;;;;21.33;100.00;100916.88;5015219;28;20060;-54
2023/08/11 04:22:43;;;;;;;1.48;0.60;;;;;;;21.39;100.00;100935.84;5021024;28;20202;-53
2023/08/11 04:25:09;;;;;;;1.10;0.40;;;;;;;21.42;100.00;100929.94;5022710;28;20553;-56
2023/08/11 04:27:35;;;;;;;4.03;0.63;;;;;;;21.43;100.00;100926.19;5016427;28;20118;-54
2023/08/11 04:30:01;;;;;;;5.78;1.13;;;;;;;21.41;100.00;100922.91;5026432;28;20445;-56
2023/08/11 04:32:26;;;;;;;1.23;0.38;;;;;;;21.31;100.00;100926.28;5020070;28;20473;-49
2023/08/11 04:34:51;;;;;;;2.80;0.38;;;;;;;21.38;100.00;100924.22;5021111;28;20037;-54
2023/08/11 04:37:18;;;;;;;4.07;1.13;;;;;;;21.40;100.00;100926.66;5015664;28;20029;-50
2023/08/11 04:39:43;;;;;;;3.83;0.85;;;;;;;21.30;100.00;100930.03;5019692;28;20044;-54
2023/08/11 04:42:08;;;;;;;3.08;0.40;;;;;;;21.33;100.00;100938.44;5018155;28;20029;-64
2023/08/11 04:44:34;;;;;;;0.28;0.20;;;;;;;21.40;100.00;100942.84;5022040;28;20708;-53
2023/08/11 04:46:59;;;;;;;3.22;0.82;;;;;;;21.44;100.00;100943.97;5014345;28;20065;-55
2023/08/11 04:49:25;;;;;;;3.70;0.63;;;;;;;21.49;100.00;100941.34;5020042;28;20032;-59
2023/08/11 04:51:51;;;;;;;1.08;0.40;;;;;;;21.45;100.00;100943.75;5021473;28;21331;-56
2023/08/11 04:54:17;;;;;;;0.80;0.50;;;;;;;21.48;100.00;100945.94;5024527;28;20037;-58
2023/08/11 04:56:43;;;;;;;3.05;0.80;;;;;;;21.43;100.00;100953.16;5016279;28;20486;-55
2023/08/11 04:59:08;;;;;;;0.93;0.30;;;;;;;21.42;100.00;100956.91;5019738;28;20068;-54
2023/08/11 05:01:33;;;;;;;0.63;0.10;;;;;;;21.35;100.00;100954.38;5019561;28;20049;-58
2023/08/11 05:03:59;;;;;;;1.75;0.32;;;;;;;21.37;100.00;100959.50;5018273;28;20041;-55
2023/08/11 05:06:24;;;;;;;0.55;0.10;;;;;;;21.33;100.00;100953.81;5019068;28;20034;-53
2023/08/11 05:08:49;;;;;;;0.08;0.08;;;;;;;21.32;100.00;100960.25;5016244;28;20049;-54
2023/08/11 05:11:15;;;;;;;0.03;0.03;;;;;;;21.45;100.00;100967.19;5021532;28;20033;-51
2023/08/11 05:13:40;;;;;;;3.17;0.10;;;;;;;21.41;100.00;100976.84;5016275;28;20076;-53
2023/08/11 05:16:07;;;;;;;0.00;0.00;;;;;;;21.42;100.00;100975.78;5018493;28;20144;-54
2023/08/11 05:18:32;;;;;;;0.63;0.00;;;;;;;21.41;100.00;100983.06;5020545;28;20509;-55
2023/08/11 05:20:57;;;;;;;0.70;0.03;;;;;;;21.44;100.00;100982.56;5016432;28;20879;-53
2023/08/11 05:23:23;;;;;;;0.98;0.10;;;;;;;21.45;100.00;100986.91;5016237;28;20037;-54
2023/08/11 05:25:48;;;;;;;0.10;0.00;;;;;;;21.50;100.00;100978.88;5013074;28;20043;-53
2023/08/11 05:28:13;;;;;;;0.30;0.00;;;;;;;;;;5021286;28;20099;-52
2023/08/11 05:30:39;;;;;;;0.13;0.00;;;;;;;21.53;100.00;100975.66;5015208;28;20116;-53
2023/08/11 05:33:05;;;;;;;0.10;0.10;;;;;;;21.58;100.00;100977.59;5029612;28;20392;-56
2023/08/11 05:35:30;;;;;;;0.75;0.00;;;;;;;;;;5015770;28;20219;-56
2023/08/11 05:37:56;;;;;;;0.07;0.03;;;;;;;21.52;100.00;100986.69;5020050;28;20108;-54
2023/08/11 05:40:21;;;;;;;0.10;0.00;;;;;;;21.48;100.00;100983.69;5024781;28;20275;-54
2023/08/11 05:42:46;;;;;;;0.45;0.15;;;;;;;21.53;100.00;100991.84;5020272;28;20065;-51
2023/08/11 05:45:12;;;;;;;0.03;0.00;;;;;;;21.61;100.00;100989.75;5022976;28;20449;-51
2023/08/11 05:47:37;;;;;;;2.53;0.10;;;;;;;21.65;100.00;100986.31;5020224;28;20108;-56
2023/08/11 05:50:03;;;;;;;0.10;0.00;;;;;;;21.66;100.00;100982.56;5018390;28;20033;-59
2023/08/11 05:52:29;;;;;;;1.48;0.00;;;;;;;21.65;100.00;100990.91;5026977;28;20056;-56
2023/08/11 05:54:54;;;;;;;1.38;0.00;;;;;;;21.65;100.00;100993.59;5024906;28;20125;-52
2023/08/11 05:57:19;;;;;;;0.40;0.00;;;;;;;21.67;100.00;100999.56;5026075;28;20513;-56
2023/08/11 05:59:45;;;;;;;0.25;0.25;;;;;;;21.74;100.00;101011.78;5018153;28;20044;-58
2023/08/11 06:02:10;;;;;;;0.10;0.00;;;;;;;21.74;100.00;101006.41;5018951;28;20053;-55
2023/08/11 06:04:35;;;;;;;1.02;0.10;;;;;;;21.72;100.00;101018.50;5020990;28;20503;-56
2023/08/11 06:07:01;;;;;;;0.80;0.00;;;;;;;21.74;100.00;101019.09;5028242;28;20025;-53
2023/08/11 06:09:26;;;;;;;0.75;0.03;;;;;;;21.77;100.00;101021.28;5029588;28;20437;-56
2023/08/11 06:11:51;;;;;;;0.65;0.20;;;;;;;21.86;100.00;101030.53;5016191;28;20368;-51
2023/08/11 06:14:17;;;;;;;0.38;0.05;;;;;;;21.83;100.00;101032.94;5018483;28;20503;-57
2023/08/11 06:16:42;;;;;;;0.20;0.20;;;;;;;21.85;100.00;101031.63;5014937;28;20038;-59
2023/08/11 06:19:08;;;;;;;1.52;0.00;;;;;;;21.93;100.00;101020.34;5018176;28;20137;-58
2023/08/11 06:21:33;;;;;;;1.55;0.00;;;;;;;21.94;100.00;101024.72;5021506;28;20538;-51
2023/08/11 06:23:58;;;;;;;0.32;0.05;;;;;;;21.97;100.00;101021.50;5019777;28;20199;-56
2023/08/11 06:26:24;;;;;;;0.98;0.00;;;;;;;22.04;100.00;101023.97;5023087;28;20079;-54
2023/08/11 06:28:49;;;;;;;0.10;0.10;;;;;;;22.04;100.00;101020.47;5015117;28;20034;-57
2023/08/11 06:31:17;;;;;;;0.20;0.05;;;;;;;21.99;100.00;101021.22;5016202;28;20040;-57
2023/08/11 06:33:43;;;;;;;1.38;0.00;;;;;;;21.98;100.00;101023.13;5016982;28;20332;-54
2023/08/11 06:36:08;;;;;;;0.00;0.00;;;;;;;22.03;100.00;101026.94;5015931;28;20041;-51
2023/08/11 06:38:33;;;;;;;2.03;0.00;;;;;;;22.06;100.00;101026.44;5015259;28;20060;-53
2023/08/11 06:40:59;;;;;;;1.40;0.05;;;;;;;22.16;100.00;101021.16;5018275;28;20026;-53
2023/08/11 06:43:24;;;;;;;0.10;0.00;;;;;;;22.15;100.00;101022.19;5027721;28;20155;-54
2023/08/11 06:45:50;;;;;;;0.35;0.00;;;;;;;22.25;100.00;101019.63;5020387;28;20386;-52
2023/08/11 06:48:15;;;;;;;0.40;0.00;;;;;;;22.34;100.00;101011.88;5021101;28;20029;-55
2023/08/11 06:50:40;;;;;;;0.10;0.00;;;;;;;22.38;100.00;101007.59;5019575;28;20030;-52
2023/08/11 06:53:06;;;;;;;1.75;0.45;;;;;;;22.43;100.00;101002.22;5020537;28;21420;-51
2023/08/11 06:55:31;;;;;;;0.32;0.00;;;;;;;22.49;100.00;101008.50;5013313;28;20029;-50
2023/08/11 06:57:57;;;;;;;1.40;0.13;;;;;;;22.58;100.00;101006.94;5014695;28;20120;-52
2023/08/11 07:00:22;;;;;;;1.55;0.20;;;;;;;22.69;100.00;101000.56;5015157;28;20372;-51
2023/08/11 07:02:47;;;;;;;1.65;0.38;;;;;;;22.79;100.00;100997.91;5009482;28;20096;-51
2023/08/11 07:05:13;;;;;;;1.15;0.08;;;;;;;22.76;100.00;100998.44;5010076;28;20329;-56
2023/08/11 07:07:38;;;;;;;0.63;0.00;;;;;;;22.67;100.00;101001.91;5010840;28;20037;-56
2023/08/11 07:10:04;;;;;;;0.00;0.00;;;;;;;22.72;100.00;101013.56;5012034;28;20033;-55
2023/08/11 07:12:29;;;;;;;0.30;0.00;;;;;;;22.69;100.00;101014.09;5012200;28;20033;-58
2023/08/11 07:14:54;;;;;;;1.83;0.10;;;;;;;22.72;100.00;101010.84;5017355;28;20120;-55
2023/08/11 07:17:20;;;;;;;0.10;0.00;;;;;;;22.85;100.00;101018.50;5009461;28;20116;-58
2023/08/11 07:19:45;;;;;;;0.32;0.00;;;;;;;22.97;100.00;101004.00;5009423;28;20072;-53
2023/08/11 07:22:11;;;;;;;0.35;0.00;;;;;;;23.03;100.00;101002.97;5011548;28;20399;-54
2023/08/11 07:24:36;;;;;;;2.25;0.00;;;;;;;23.00;100.00;100992.66;5010025;28;20048;-52
2023/08/11 07:27:01;;;;;;;0.10;0.00;;;;;;;23.09;100.00;101001.94;5010461;28;20026;-54
2023/08/11 07:29:27;;;;;;;0.57;0.10;;;;;;;23.10;100.00;100998.13;5010538;28;20516;-56
2023/08/11 07:31:52;;;;;;;0.60;0.05;;;;;;;23.15;100.00;100994.66;4995105;28;20116;-52
2023/08/11 07:34:18;;;;;;;0.50;0.00;;;;;;;23.24;100.00;100996.59;5012537;28;20120;-52
2023/08/11 07:36:43;;;;;;;1.10;0.00;;;;;;;23.26;100.00;100997.16;5012795;28;20490;-56
2023/08/11 07:39:09;;;;;;;1.17;0.00;;;;;;;23.35;100.00;100993.94;5009241;28;20041;-53
2023/08/11 07:41:35;;;;;;;1.15;0.10;;;;;;;23.48;100.00;100999.66;5003314;28;20416;-50
2023/08/11 07:44:01;;;;;;;0.47;0.00;;;;;;;23.43;100.00;100996.94;5006455;28;20406;-53
2023/08/11 07:46:26;;;;;;;1.90;0.10;;;;;;;23.65;100.00;100993.25;5004309;28;20073;-54
2023/08/11 07:48:51;;;;;;;1.13;0.45;;;;;;;23.83;100.00;100992.00;5001665;28;21573;-56
2023/08/11 07:51:17;;;;;;;1.45;0.10;;;;;;;24.13;100.00;100992.00;5003632;28;20038;-55
2023/08/11 07:53:44;;;;;;;2.97;0.52;;;;;;;24.12;100.00;100993.09;5001298;28;20033;-53
2023/08/11 07:56:11;;;;;;;1.73;0.25;;;;;;;23.89;100.00;100990.91;5002932;28;20046;-54
2023/08/11 07:58:36;;;;;;;2.33;0.22;;;;;;;24.00;100.00;100995.25;5006438;28;20022;-55
2023/08/11 08:01:02;;;;;;;0.50;0.10;;;;;;;24.20;100.00;100988.25;5010055;28;20103;-59
2023/08/11 08:03:27;;;;;;;1.10;0.05;;;;;;;24.22;100.00;100986.09;5008734;28;21184;-57
2023/08/11 08:05:52;;;;;;;0.68;0.30;;;;;;;24.43;100.00;100989.63;5008986;28;20158;-50
2023/08/11 08:08:18;;;;;;;0.82;0.10;;;;;;;24.52;100.00;100988.00;5007664;28;20529;-50
2023/08/11 08:10:43;;;;;;;2.50;0.00;;;;;;;24.84;100.00;100976.06;5008062;28;20029;-54
2023/08/11 08:13:08;;;;;;;3.72;1.02;;;;;;;24.75;100.00;100983.91;5006320;28;20432;-56
2023/08/11 08:15:35;;;;;;;1.45;0.13;;;;;;;24.42;100.00;100980.69;5002065;28;20073;-54
2023/08/11 08:18:00;;;;;;;2.70;0.00;;;;;;;24.46;100.00;100981.78;5004020;28;20026;-51
2023/08/11 08:20:26;;;;;;;11.05;2.38;;;;;;;24.37;100.00;100977.97;5009300;28;20037;-60
2023/08/11 08:22:51;;;;;;;0.82;0.03;;;;;;;24.72;100.00;100979.84;5000450;28;20053;-54
2023/08/11 08:25:17;;;;;;;4.03;0.10;;;;;;;24.71;100.00;100978.22;5003949;28;20053;-52
2023/08/11 08:27:42;;;;;;;2.60;0.30;;;;;;;24.68;100.00;100983.38;5001648;28;20032;-57
2023/08/11 08:30:10;;;;;;;2.53;0.00;;;;;;;24.99;100.00;100982.25;5007327;28;20030;-55
2023/08/11 08:32:36;;;;;;;5.05;1.00;;;;;;;25.30;100.00;100978.63;5003974;28;20033;-54
2023/08/11 08:35:03;;;;;;;2.17;0.22;;;;;;;25.58;100.00;100982.59;5002537;28;20038;-56
2023/08/11 08:37:28;;;;;;;2.13;0.57;;;;;;;25.42;100.00;100981.84;5001239;28;20060;-52
2023/08/11 08:39:54;;;;;;;3.55;0.40;;;;;;;25.62;100.00;100983.66;5002055;28;20704;-54
2023/08/11 08:42:21;;;;;;;3.53;1.85;;;;;;;26.19;100.00;100978.72;5002421;28;20084;-55
2023/08/11 08:44:48;;;;;;;1.63;0.08;;;;;;;26.36;100.00;100984.56;5002725;28;20033;-52
2023/08/11 08:47:17;;;;;;;2.13;0.57;;;;;;;26.71;100.00;100985.34;5003985;28;20407;-60
2023/08/11 08:49:44;;;;;;;1.45;0.10;;;;;;;26.39;100.00;100983.19;4997717;28;20041;-49
2023/08/11 08:52:10;;;;;;;3.65;0.20;;;;;;;25.87;100.00;100991.69;4998783;28;20049;-53
2023/08/11 08:54:35;;;;;;;3.60;0.30;;;;;;;25.53;100.00;100988.88;5004420;28;20443;-56
2023/08/11 08:57:04;;;;;;;0.90;0.13;;;;;;;25.47;100.00;100984.53;5002259;28;20527;-53
2023/08/11 08:59:29;;;;;;;0.55;0.20;;;;;;;25.70;100.00;100983.06;5004963;28;20037;-53
2023/08/11 09:01:56;;;;;;;1.85;0.10;;;;;;;26.02;100.00;100988.06;4994954;28;20054;-53
2023/08/11 09:04:22;;;;;;;4.20;0.32;;;;;;;25.86;100.00;100986.53;5012052;28;20558;-53
2023/08/11 09:06:48;;;;;;;3.20;0.13;;;;;;;25.93;100.00;100991.66;5009898;28;20403;-59
2023/08/11 09:09:15;;;;;;;2.42;0.15;;;;;;;25.71;100.00;100992.81;5004365;28;20041;-50
2023/08/11 09:11:41;;;;;;;3.10;0.57;;;;;;;25.38;100.00;100999.78;5014015;28;20036;-57
2023/08/11 09:14:08;;;;;;;0.60;0.20;;;;;;;25.64;100.00;100993.16;5002720;28;20033;-51
2023/08/11 09:16:34;;;;;;;2.92;0.43;;;;;;;25.72;100.00;100996.38;5003615;28;20112;-55
2023/08/11 09:19:00;;;;;;;3.47;0.75;;;;;;;25.54;100.00;100995.91;5006693;28;20915;-53
2023/08/11 09:21:26;;;;;;;2.75;0.20;;;;;;;25.39;100.00;100990.56;5005416;28;20044;-53
2023/08/11 09:23:54;;;;;;;2.63;0.43;;;;;;;26.08;100.00;100986.94;5011760;28;20038;-51
2023/08/11 09:26:21;;;;;;;8.88;0.63;;;;;;;26.51;100.00;100981.72;5005653;28;20026;-53
2023/08/11 09:28:46;;;;;;;1.95;0.20;;;;;;;26.68;100.00;100975.03;5009359;28;20034;-53
2023/08/11 09:31:12;;;;;;;2.78;0.30;;;;;;;26.99;100.00;100983.69;5006962;28;20041;-57
2023/08/11 09:33:37;;;;;;;4.15;0.17;;;;;;;27.17;100.00;100982.97;5004618;28;20044;-51
2023/08/11 09:36:04;;;;;;;1.17;0.30;;;;;;;27.25;100.00;100986.16;5009599;28;20426;-50
2023/08/11 09:38:29;;;;;;;1.67;0.50;;;;;;;26.99;100.00;100986.41;5007155;28;20064;-55
2023/08/11 09:40:59;;;;;;;3.03;0.55;;;;;;;27.19;100.00;100991.66;5003402;28;20057;-50
2023/08/11 09:43:24;;;;;;;2.38;0.75;;;;;;;27.31;100.00;100984.97;5004926;28;20034;-49
2023/08/11 09:45:51;;;;;;;5.57;1.05;;;;;;;27.40;100.00;100985.97;5001983;28;20568;-52
2023/08/11 09:48:17;;;;;;;2.30;0.90;;;;;;;27.64;100.00;100985.91;5005422;28;20029;-51
2023/08/11 09:50:44;;;;;;;2.47;0.20;;;;;;;27.93;100.00;100983.09;5009903;28;20029;-52
2023/08/11 09:53:09;;;;;;;2.60;0.30;;;;;;;27.62;100.00;100988.97;5008550;28;20026;-52
2023/08/11 09:55:38;;;;;;;4.35;1.08;;;;;;;27.61;100.00;100987.31;4998045;28;20021;-53
2023/08/11 09:58:04;;;;;;;3.80;1.20;;;;;;;27.91;100.00;100990.75;4999517;28;20026;-52
2023/08/11 10:00:30;;;;;;;1.27;0.65;;;;;;;28.00;100.00;100988.97;5004528;28;20179;-51
2023/08/11 10:03:01;;;;;;;4.90;0.13;;;;;;;27.55;100.00;100980.31;4997335;28;20038;-52
2023/08/11 10:05:29;;;;;;;2.45;0.32;;;;;;;27.57;100.00;100980.03;5003248;28;20057;-54
2023/08/11 10:07:57;;;;;;;0.93;0.20;;;;;;;27.97;100.00;100989.56;5003397;28;20643;-52
2023/08/11 10:10:23;;;;;;;2.00;0.22;;;;;;;28.22;100.00;100985.63;5000459;28;20835;-49
2023/08/11 10:12:58;;;;;;;3.17;1.20;;;;;;;28.26;100.00;100977.66;5007936;28;20029;-54
2023/08/11 10:15:27;;;;;;;1.60;0.30;;;;;;;28.18;100.00;100978.34;5007031;28;20034;-54
2023/08/11 10:17:52;;;;;;;2.47;0.50;;;;;;;28.05;100.00;100974.47;5014139;28;20040;-56
2023/08/11 10:20:19;;;;;;;2.22;0.35;;;;;;;28.28;100.00;100978.19;5012720;28;20378;-53
2023/08/11 10:22:44;;;;;;;1.13;0.32;;;;;;;28.85;100.00;100976.09;5005723;28;20044;-57
2023/08/11 10:25:11;;;;;;;1.67;0.05;;;;;;;29.07;100.00;100980.09;5009980;28;20037;-50
2023/08/11 10:27:38;;;;;;;3.20;0.98;;;;;;;29.31;100.00;100972.50;5014758;28;20204;-55
2023/08/11 10:30:07;;;;;;;2.05;1.23;;;;;;;29.23;100.00;100966.94;5008536;28;20032;-52
2023/08/11 10:32:33;;;;;;;2.00;0.73;;;;;;;28.36;97.20;100991.13;5013183;28;20057;-55
2023/08/11 10:34:58;;;;;;;5.03;0.20;;;;;;;27.57;100.00;100991.75;5013671;28;20057;-62
2023/08/11 10:37:29;;;;;;;2.35;0.30;;;;;;;27.81;100.00;100985.47;5017809;28;20576;-51
2023/08/11 10:40:05;;;;;;;;;;;;;;;28.47;98.42;100968.09;5009219;28;20426;-54
2023/08/11 10:42:31;;;;;;;1.90;0.73;;;;;;;28.91;99.25;100974.06;5029427;28;19925;-49
2023/08/11 10:45:18;;;;;;;2.60;0.10;;;;;;;29.07;98.30;100966.47;5010169;28;20429;-53
2023/08/11 10:47:52;;;;;;;2.03;0.50;;;;;;;29.16;96.00;100953.69;5009595;28;20034;-56
2023/08/11 10:50:18;;;;;;;0.38;0.32;;;;;;;29.24;95.97;100969.34;5004002;28;20042;-55
2023/08/11 10:52:45;;;;;;;0.63;0.22;;;;;;;29.08;93.50;100979.78;5005706;28;20549;-52
2023/08/11 10:55:10;;;;;;;1.83;0.22;;;;;;;28.42;97.58;100975.47;5000596;28;20038;-53
2023/08/11 10:57:36;;;;;;;4.68;1.00;;;;;;;28.57;98.29;100969.78;5005476;28;20041;-50
2023/08/11 11:00:01;;;;;;;1.20;0.30;;;;;;;28.95;95.73;100958.72;5003002;28;20041;-54
2023/08/11 11:02:26;;;;;;;1.08;0.20;;;;;;;29.19;95.55;100955.00;5005331;28;20474;-59
2023/08/11 11:04:52;;;;;;;1.58;0.20;;;;;;;29.31;94.64;100966.22;5000687;28;20861;-56
2023/08/11 11:07:22;;;;;;;4.13;0.70;;;;;;;29.41;92.44;100955.09;5002431;28;20045;-54
2023/08/11 11:09:47;;;;;;;1.35;0.20;;;;;;;29.22;89.72;100963.38;5003773;28;20149;-58
2023/08/11 11:12:14;;;;;;;0.98;0.10;;;;;;;29.07;91.17;100952.81;5005119;28;20521;-53
2023/08/11 11:14:39;;;;;;;1.83;0.10;;;;;;;29.54;90.53;100956.16;5002272;28;20037;-49